Time;durP1;ratioP1;P1;durP2;ratioP2;P2;SDS_P1;SDS_P2;PMS_P1;PMS_P2;Temp;Humidity;BMP_temperature;BMP_pressure;BME280_temperature;BME280_humidity;BME280_pressure;Samples;Min_cycle;Max_cycle;Signal;HPM_P1;HPM_P2
2021/03/11 00:01:42;;;;;;;21.58;10.48;;;;;;;-1.23;54.57;100788.28;5117474;27;20071;-75
2021/03/11 00:04:07;;;;;;;20.40;10.68;;;;;;;-1.17;54.18;100797.84;5135900;27;20392;-75
2021/03/11 00:06:33;;;;;;;20.75;10.77;;;;;;;-1.23;54.78;100788.28;5136076;27;20132;-74
2021/03/11 00:08:59;;;;;;;21.27;10.82;;;;;;;-1.19;54.40;100790.00;5117685;27;20509;-75
2021/03/11 00:11:24;;;;;;;21.58;10.65;;;;;;;-1.30;54.58;100797.03;5135670;27;20068;-75
2021/03/11 00:13:50;;;;;;;22.58;11.18;;;;;;;-1.33;54.29;100791.81;5117641;27;20050;-74
2021/03/11 00:16:15;;;;;;;25.30;10.93;;;;;;;-1.31;54.48;100792.69;5117247;27;20055;-74
2021/03/11 00:18:41;;;;;;;17.95;10.27;;;;;;;-1.35;54.86;100788.34;5135662;27;20096;-74
2021/03/11 00:21:06;;;;;;;21.73;11.05;;;;;;;-1.41;55.17;100788.34;5117588;27;20058;-75
2021/03/11 00:23:32;;;;;;;21.98;11.20;;;;;;;-1.47;55.31;100789.22;5117015;27;20023;-75
2021/03/11 00:25:58;;;;;;;20.55;11.25;;;;;;;-1.40;55.60;100794.44;5117335;27;20031;-75
2021/03/11 00:28:23;;;;;;;21.45;11.00;;;;;;;-1.36;55.73;100789.19;5135217;27;20030;-76
2021/03/11 00:30:49;;;;;;;22.67;11.55;;;;;;;-1.39;55.56;100786.59;5117206;27;20461;-76
2021/03/11 00:33:15;;;;;;;20.13;10.70;;;;;;;-1.51;55.82;100790.13;5116698;27;20438;-76
2021/03/11 00:35:41;;;;;;;23.52;10.85;;;;;;;-1.56;56.28;100783.16;5135605;27;20027;-71
2021/03/11 00:38:06;;;;;;;21.27;11.60;;;;;;;-1.57;56.34;100778.78;5135310;27;20389;-71
2021/03/11 00:40:33;;;;;;;20.95;11.35;;;;;;;-1.53;56.45;100763.09;5134999;27;20108;-71
2021/03/11 00:42:59;;;;;;;20.27;10.70;;;;;;;-1.54;56.04;100755.25;5135191;27;20031;-72
2021/03/11 00:45:24;;;;;;;22.58;11.73;;;;;;;-1.56;55.93;100763.09;5134894;27;20027;-73
2021/03/11 00:47:50;;;;;;;20.08;10.02;;;;;;;-1.53;55.77;100762.22;5116678;27;20072;-73
2021/03/11 00:50:21;;;;;;;21.38;11.98;;;;;;;-1.55;56.04;100759.59;5134749;27;20033;-75
2021/03/11 00:52:47;;;;;;;19.30;10.13;;;;;;;-1.51;55.14;100755.25;5135057;27;20014;-74
2021/03/11 00:55:14;;;;;;;20.98;11.38;;;;;;;-1.46;54.56;100753.47;5134526;27;20050;-74
2021/03/11 00:57:40;;;;;;;22.23;10.63;;;;;;;-1.51;55.14;100756.09;5134798;27;20031;-72
2021/03/11 01:00:08;;;;;;;23.60;10.45;;;;;;;-1.53;54.94;100754.38;5134915;27;20092;-72
2021/03/11 01:02:33;;;;;;;18.38;10.85;;;;;;;-1.57;55.34;100761.34;5134157;27;20053;-71
2021/03/11 01:04:59;;;;;;;20.20;10.30;;;;;;;-1.62;55.70;100762.25;5134783;27;20039;-74
2021/03/11 01:07:24;;;;;;;22.05;11.20;;;;;;;-1.66;55.80;100757.88;5134545;27;20054;-70
2021/03/11 01:09:50;;;;;;;17.30;9.50;;;;;;;-1.66;55.61;100760.50;5134784;27;20030;-72
2021/03/11 01:12:16;;;;;;;20.73;10.85;;;;;;;-1.73;55.67;100760.53;5116059;27;20056;-72
2021/03/11 01:14:42;;;;;;;20.42;10.65;;;;;;;-1.73;55.31;100755.31;5134658;27;20027;-71
2021/03/11 01:17:08;;;;;;;22.27;10.57;;;;;;;-1.63;55.74;100757.91;5134529;27;20059;-71
2021/03/11 01:19:34;;;;;;;23.65;10.88;;;;;;;-1.54;55.34;100750.91;5115922;27;20027;-73
2021/03/11 01:21:59;;;;;;;21.73;11.10;;;;;;;-1.54;55.41;100757.88;5134575;27;20027;-73
2021/03/11 01:24:25;;;;;;;20.83;10.30;;;;;;;-1.58;55.12;100753.50;5134339;27;20159;-73
2021/03/11 01:26:51;;;;;;;24.80;11.38;;;;;;;-1.61;55.52;100748.28;5116334;27;20035;-72
2021/03/11 01:29:16;;;;;;;24.70;13.07;;;;;;;-1.65;55.93;100751.78;5134152;27;20019;-76
2021/03/11 01:31:42;;;;;;;24.40;12.70;;;;;;;-1.75;56.07;100757.03;5115978;27;20034;-76
2021/03/11 01:34:07;;;;;;;24.17;12.23;;;;;;;-1.84;56.31;100759.66;5134352;27;20462;-74
2021/03/11 01:36:32;;;;;;;20.65;10.82;;;;;;;-1.91;56.58;100746.63;5133893;27;20031;-75
2021/03/11 01:38:59;;;;;;;27.67;11.48;;;;;;;-1.92;56.35;100748.38;5134187;27;20030;-76
2021/03/11 01:41:24;;;;;;;23.40;12.05;;;;;;;-1.89;56.27;100748.34;5115452;27;20595;-75
2021/03/11 01:43:56;;;;;;;22.25;11.35;;;;;;;-1.89;56.88;100740.50;5134090;27;20110;-74
2021/03/11 01:46:23;;;;;;;22.33;11.13;;;;;;;-1.89;56.22;100745.72;5115380;27;20027;-74
2021/03/11 01:48:48;;;;;;;22.33;10.98;;;;;;;-2.03;56.37;100723.94;5133990;27;20087;-74
2021/03/11 01:51:15;;;;;;;22.10;11.27;;;;;;;-1.95;56.77;100743.13;5134072;27;20102;-75
2021/03/11 01:53:40;;;;;;;21.65;10.93;;;;;;;-1.91;56.74;100742.25;5133897;27;20027;-74
2021/03/11 01:56:06;;;;;;;19.48;11.05;;;;;;;-1.98;56.64;100745.75;5134028;27;20034;-75
2021/03/11 01:58:32;;;;;;;20.10;10.70;;;;;;;-1.88;56.73;100731.78;5133655;27;20034;-74
2021/03/11 02:00:58;;;;;;;21.63;11.43;;;;;;;-1.93;57.01;100736.16;5133906;27;20119;-74
2021/03/11 02:03:23;;;;;;;21.55;10.90;;;;;;;-1.99;56.86;100741.41;5133436;27;20466;-73
2021/03/11 02:05:49;;;;;;;22.20;11.07;;;;;;;-1.96;57.14;100741.38;5133941;27;20027;-73
2021/03/11 02:08:15;;;;;;;21.08;10.77;;;;;;;-2.04;57.42;100728.31;5115598;28;20048;-73
2021/03/11 02:10:40;;;;;;;19.67;10.35;;;;;;;-2.03;57.14;100744.88;5133517;28;20141;-74
2021/03/11 02:13:28;;;;;;;19.77;10.48;;;;;;;-2.03;56.83;100737.03;5114820;28;20411;-74
2021/03/11 02:16:00;;;;;;;19.77;10.82;;;;;;;-2.10;57.62;100737.94;5133694;27;20019;-73
2021/03/11 02:18:32;;;;;;;21.65;11.57;;;;;;;-2.20;58.22;100741.41;5115158;28;20103;-74
2021/03/11 02:21:36;;;;;;;22.60;11.75;;;;;;;-2.18;57.51;100732.69;5133959;28;20038;-73
2021/03/11 02:24:11;;;;;;;;;;;;;;;-2.18;58.36;100734.44;5134012;27;20031;-74
2021/03/11 02:27:13;;;;;;;21.05;10.57;;;;;;;-2.19;58.50;100735.31;5115060;28;19919;-73
2021/03/11 02:29:41;;;;;;;20.15;11.07;;;;;;;-2.25;58.57;100737.94;5133313;28;20027;-72
2021/03/11 02:32:10;;;;;;;24.23;11.15;;;;;;;-2.30;58.62;100737.94;5133565;27;20031;-74
2021/03/11 02:34:48;;;;;;;20.35;11.40;;;;;;;-2.29;58.98;100736.19;5114899;28;20023;-75
2021/03/11 02:37:41;;;;;;;23.42;11.60;;;;;;;-2.35;59.46;100740.53;5115042;28;20118;-75
2021/03/11 02:40:12;;;;;;;24.38;11.30;;;;;;;-2.26;58.84;100739.66;5121256;28;20378;-76
2021/03/11 02:42:39;;;;;;;21.23;11.57;;;;;;;-2.29;58.57;100725.75;5133452;27;20762;-77
2021/03/11 02:45:06;;;;;;;27.75;11.40;;;;;;;-2.29;58.75;100726.63;5115764;28;20027;-77
2021/03/11 02:47:33;;;;;;;35.20;11.05;;;;;;;-2.29;59.12;100723.13;5133271;28;20031;-74
2021/03/11 02:50:01;;;;;;;27.40;11.60;;;;;;;-2.32;58.64;100722.25;5115118;28;20032;-75
2021/03/11 02:52:28;;;;;;;22.60;11.52;;;;;;;-2.40;59.18;100729.22;5133131;28;20378;-75
2021/03/11 02:54:55;;;;;;;22.90;11.68;;;;;;;-2.38;59.17;100718.78;5098192;28;20072;-72
2021/03/11 02:57:22;;;;;;;23.77;11.45;;;;;;;-2.38;58.32;100732.72;5132963;28;20030;-73
2021/03/11 02:59:50;;;;;;;21.63;11.32;;;;;;;-2.40;58.58;100724.00;5133477;28;20405;-71
2021/03/11 03:02:16;;;;;;;26.40;11.27;;;;;;;-2.34;58.86;100725.72;5133111;28;20047;-71
2021/03/11 03:04:45;;;;;;;23.25;11.65;;;;;;;-2.26;59.99;100729.22;5114689;28;20019;-71
2021/03/11 03:07:15;;;;;;;22.27;11.43;;;;;;;-2.19;60.19;100717.88;5133360;27;20478;-75
2021/03/11 03:09:43;;;;;;;22.38;11.38;;;;;;;-2.34;60.11;100710.91;5132951;28;20083;-75
2021/03/11 03:12:09;;;;;;;21.90;11.82;;;;;;;-2.41;60.09;100718.78;5133214;28;20397;-75
2021/03/11 03:14:37;;;;;;;21.58;11.25;;;;;;;-2.49;59.88;100728.34;5132896;27;20039;-74
2021/03/11 03:17:02;;;;;;;21.48;11.10;;;;;;;-2.50;59.74;100724.88;5114875;28;20139;-73
2021/03/11 03:19:28;;;;;;;22.55;11.02;;;;;;;-2.45;59.52;100733.56;5114474;28;20044;-75
2021/03/11 03:21:55;;;;;;;24.95;11.52;;;;;;;-2.48;60.23;100732.72;5133226;28;20059;-73
2021/03/11 03:24:21;;;;;;;22.85;11.73;;;;;;;-2.56;60.63;100731.81;5133163;27;20443;-78
2021/03/11 03:26:46;;;;;;;24.40;11.38;;;;;;;-2.60;59.27;100720.53;5136799;27;20030;-76
2021/03/11 03:29:12;;;;;;;22.55;11.75;;;;;;;-2.66;59.24;100728.34;5101575;27;20030;-77
2021/03/11 03:31:38;;;;;;;23.98;11.18;;;;;;;-2.63;59.62;100725.72;5136395;27;20097;-75
2021/03/11 03:34:03;;;;;;;25.38;11.30;;;;;;;-2.68;58.73;100727.47;5136716;27;20397;-76
2021/03/11 03:36:29;;;;;;;27.40;12.02;;;;;;;-2.72;58.91;100730.94;5136320;27;20047;-76
2021/03/11 03:38:55;;;;;;;29.50;12.18;;;;;;;-2.75;59.16;100720.50;5136694;27;20037;-74
2021/03/11 03:41:24;;;;;;;24.60;12.27;;;;;;;-2.78;59.78;100730.94;5137111;27;20023;-75
2021/03/11 03:43:50;;;;;;;27.95;12.57;;;;;;;-2.86;60.35;100712.66;5137341;27;20068;-75
2021/03/11 03:46:22;;;;;;;28.02;12.77;;;;;;;-2.86;60.46;100717.00;5118959;27;20431;-74
2021/03/11 03:48:53;;;;;;;31.00;12.15;;;;;;;-2.88;60.44;100710.03;5137476;27;20053;-74
2021/03/11 03:51:28;;;;;;;28.45;12.32;;;;;;;-2.88;60.57;100724.84;5137084;27;20054;-73
2021/03/11 03:53:58;;;;;;;28.02;13.10;;;;;;;-2.85;60.23;100718.72;5136561;27;20027;-74
2021/03/11 03:56:31;;;;;;;25.85;13.57;;;;;;;-2.80;60.36;100723.06;5136154;27;20019;-78
2021/03/11 03:58:59;;;;;;;24.70;13.10;;;;;;;-2.84;61.04;100726.56;5118081;27;20027;-75
2021/03/11 04:01:30;;;;;;;27.88;12.25;;;;;;;-2.78;60.95;100733.56;5100670;27;20139;-74
2021/03/11 04:03:58;;;;;;;22.40;11.98;;;;;;;-2.75;60.63;100728.31;5118007;27;20015;-73
2021/03/11 04:06:24;;;;;;;26.67;12.32;;;;;;;-2.89;62.08;100721.34;5135909;27;20076;-77
2021/03/11 04:08:50;;;;;;;25.42;12.75;;;;;;;-2.90;61.83;100721.31;5136093;27;20027;-73
2021/03/11 04:11:18;;;;;;;34.60;14.25;;;;;;;-2.95;62.36;100717.84;5136166;27;20110;-72
2021/03/11 04:13:45;;;;;;;31.65;14.02;;;;;;;-2.98;62.42;100729.16;5135502;27;20023;-72
2021/03/11 04:16:12;;;;;;;27.88;13.88;;;;;;;-3.01;62.61;100729.13;5134741;27;20126;-74
2021/03/11 04:18:38;;;;;;;33.75;15.30;;;;;;;-3.01;62.65;100736.97;5116860;27;20423;-73
2021/03/11 04:21:06;;;;;;;31.42;15.63;;;;;;;-2.98;62.76;100737.00;5135669;27;20034;-76
2021/03/11 04:23:33;;;;;;;35.35;15.65;;;;;;;-2.93;62.51;100737.84;5117199;27;20027;-75
2021/03/11 04:25:59;;;;;;;27.50;13.23;;;;;;;-2.91;62.38;100736.09;5117175;27;20461;-74
2021/03/11 04:28:25;;;;;;;29.83;13.85;;;;;;;-2.92;62.89;100739.59;5135676;27;20057;-75
2021/03/11 04:30:50;;;;;;;25.38;13.63;;;;;;;-2.97;62.92;100743.94;5116915;27;20023;-74
2021/03/11 04:33:16;;;;;;;28.83;13.68;;;;;;;-3.01;63.06;100750.00;5117136;27;20051;-74
2021/03/11 04:35:42;;;;;;;32.50;13.32;;;;;;;-2.98;62.94;100744.81;5134783;27;20023;-74
2021/03/11 04:38:07;;;;;;;28.70;13.75;;;;;;;-2.93;62.52;100747.44;5117076;27;20031;-75
2021/03/11 04:40:34;;;;;;;30.25;13.48;;;;;;;-2.95;63.88;100743.94;5135021;27;20454;-74
2021/03/11 04:43:01;;;;;;;24.55;13.23;;;;;;;-3.03;64.12;100749.13;5135289;27;20031;-74
2021/03/11 04:45:27;;;;;;;29.50;12.63;;;;;;;-3.06;64.48;100745.66;5116690;27;20027;-77
2021/03/11 04:47:53;;;;;;;34.20;13.95;;;;;;;-3.09;64.80;100738.66;5135128;27;20489;-76
2021/03/11 04:50:18;;;;;;;29.33;15.18;;;;;;;-3.12;65.06;100729.97;5135635;27;20046;-76
2021/03/11 04:52:44;;;;;;;38.28;16.48;;;;;;;-3.04;65.25;100739.56;5116669;27;20027;-75
2021/03/11 04:55:11;;;;;;;27.75;14.90;;;;;;;-3.14;65.34;100732.59;5135201;27;20584;-76
2021/03/11 04:57:36;;;;;;;27.27;14.07;;;;;;;-3.02;65.17;100731.75;5134730;27;20035;-74
2021/03/11 05:00:04;;;;;;;39.30;18.08;;;;;;;-3.01;64.90;100728.25;5135009;27;20385;-79
2021/03/11 05:02:33;;;;;;;36.28;16.40;;;;;;;-3.01;64.96;100728.25;5134577;27;20047;-76
2021/03/11 05:05:06;;;;;;;31.02;15.63;;;;;;;-3.05;65.04;100732.59;5116493;27;20019;-74
2021/03/11 05:07:32;;;;;;;34.40;16.38;;;;;;;-3.07;65.56;100723.03;5134594;27;20094;-75
2021/03/11 05:09:57;;;;;;;41.60;15.88;;;;;;;-2.99;65.40;100723.91;5134659;27;20076;-75
2021/03/11 05:12:24;;;;;;;47.63;20.08;;;;;;;-2.99;64.70;100722.19;5134806;27;20070;-75
2021/03/11 05:14:49;;;;;;;39.78;17.33;;;;;;;-2.82;64.60;100723.94;5134338;27;20942;-75
2021/03/11 05:17:15;;;;;;;40.38;17.73;;;;;;;-2.99;65.03;100703.94;5116202;27;20023;-77
2021/03/11 05:19:40;;;;;;;38.58;18.65;;;;;;;-2.79;64.71;100726.59;5134419;27;20051;-76
2021/03/11 05:22:06;;;;;;;46.15;18.00;;;;;;;-2.85;64.64;100731.78;5099663;27;20359;-76
2021/03/11 05:24:31;;;;;;;44.35;18.98;;;;;;;-2.80;64.41;100730.03;5116045;27;20031;-78
2021/03/11 05:26:57;;;;;;;51.83;21.30;;;;;;;-2.83;64.52;100727.44;5099536;27;20079;-78
2021/03/11 05:29:22;;;;;;;66.50;24.15;;;;;;;-2.71;63.77;100725.69;5099213;27;20532;-79
2021/03/11 05:31:48;;;;;;;67.72;25.70;;;;;;;-2.66;63.54;100728.34;5134227;27;20027;-72
2021/03/11 05:34:13;;;;;;;48.03;21.17;;;;;;;-2.60;63.90;100731.84;5134528;27;20027;-76
2021/03/11 05:36:39;;;;;;;52.58;22.05;;;;;;;-2.54;63.80;100730.06;5133955;27;20084;-75
2021/03/11 05:39:05;;;;;;;50.30;22.42;;;;;;;-2.51;63.72;100730.06;5134532;27;20486;-73
2021/03/11 05:41:38;;;;;;;55.55;22.48;;;;;;;-2.36;62.60;100741.41;5134107;27;20023;-74
2021/03/11 05:44:07;;;;;;;59.10;23.50;;;;;;;-2.43;62.12;100739.66;5134160;27;20023;-73
2021/03/11 05:46:37;;;;;;;59.47;23.00;;;;;;;-2.29;62.96;100749.25;5133662;27;20019;-81
2021/03/11 05:49:03;;;;;;;59.45;24.13;;;;;;;-2.32;62.68;100751.00;5133744;27;20027;-74
2021/03/11 05:51:29;;;;;;;56.83;23.45;;;;;;;-2.27;62.67;100750.13;5134068;27;20515;-72
2021/03/11 05:53:58;;;;;;;55.17;23.77;;;;;;;-2.13;61.75;100743.13;5133738;27;20433;-72
2021/03/11 05:56:23;;;;;;;65.47;25.80;;;;;;;-2.04;61.44;100746.63;5115297;27;20076;-74
2021/03/11 05:58:49;;;;;;;60.88;26.60;;;;;;;-1.96;60.83;100751.84;5133445;27;20031;-72
2021/03/11 06:01:16;;;;;;;61.10;25.15;;;;;;;-1.76;60.16;100755.28;5133651;27;20508;-77
2021/03/11 06:03:42;;;;;;;60.63;26.30;;;;;;;-1.58;59.50;100750.88;5133849;27;20387;-78
2021/03/11 06:06:07;;;;;;;64.07;27.65;;;;;;;-1.58;59.18;100751.75;5134033;27;20087;-77
2021/03/11 06:08:34;;;;;;;54.90;26.38;;;;;;;-1.42;58.87;100754.34;5115946;27;20030;-78
2021/03/11 06:11:01;;;;;;;60.63;26.13;;;;;;;-1.21;57.70;100739.41;5133971;27;20031;-77
2021/03/11 06:13:27;;;;;;;55.33;26.20;;;;;;;-1.18;57.43;100747.25;5133904;28;20034;-76
2021/03/11 06:16:03;;;;;;;55.13;24.63;;;;;;;-1.05;57.25;100749.81;5133676;28;20034;-78
2021/03/11 06:18:32;;;;;;;49.28;22.15;;;;;;;-0.76;56.17;100747.91;5115631;28;20485;-79
2021/03/11 06:21:01;;;;;;;42.55;20.88;;;;;;;-0.67;55.65;100755.72;5133419;28;20096;-78
2021/03/11 06:23:29;;;;;;;42.78;21.70;;;;;;;-0.65;55.74;100753.94;5130042;27;20031;-75
2021/03/11 06:25:57;;;;;;;48.83;23.08;;;;;;;-0.47;55.12;100754.72;5133462;27;20470;-78
2021/03/11 06:28:44;;;;;;;41.30;21.23;;;;;;;-0.41;54.98;100744.16;5133418;27;20031;-75
2021/03/11 06:31:22;;;;;;;49.58;23.70;;;;;;;-0.35;54.76;100745.00;5130342;28;20030;-77
2021/03/11 06:33:53;;;;;;;50.35;24.15;;;;;;;-0.32;54.64;100744.09;5133468;28;20031;-78
2021/03/11 06:36:22;;;;;;;44.45;22.55;;;;;;;-0.38;54.87;100738.94;5133372;27;20023;-74
2021/03/11 06:38:48;;;;;;;44.40;21.75;;;;;;;-0.26;54.11;100738.81;5133259;27;20030;-75
2021/03/11 06:41:15;;;;;;;44.40;22.77;;;;;;;-0.06;53.67;100736.88;5098235;28;20023;-76
2021/03/11 06:43:58;;;;;;;44.95;21.63;;;;;;;-0.14;53.49;100722.97;5114667;28;20050;-77
2021/03/11 06:46:26;;;;;;;40.20;21.88;;;;;;;-0.05;54.21;100750.88;5133422;27;20106;-76
2021/03/11 06:49:11;;;;;;;46.47;21.65;;;;;;;-0.06;53.75;100736.03;5133210;28;20500;-75
2021/03/11 06:51:37;;;;;;;46.40;21.33;;;;;;;-0.19;54.79;100740.50;5113163;28;20031;-69
2021/03/11 06:54:04;;;;;;;40.60;20.95;;;;;;;-0.17;55.05;100748.38;5110964;28;20060;-76
2021/03/11 06:56:29;;;;;;;42.65;20.83;;;;;;;-0.11;54.55;100736.03;5115439;28;20038;-75
2021/03/11 06:59:02;;;;;;;39.40;18.27;;;;;;;0.18;54.68;100748.00;5116392;27;20031;-77
2021/03/11 07:01:30;;;;;;;34.50;16.25;;;;;;;0.15;53.75;100742.81;5118758;27;20519;-72
2021/03/11 07:03:58;;;;;;;27.83;14.40;;;;;;;0.18;53.58;100761.13;5136299;27;20024;-72
2021/03/11 07:06:32;;;;;;;28.23;14.00;;;;;;;0.16;54.32;100760.28;5137035;27;20042;-74
2021/03/11 07:08:59;;;;;;;26.20;13.38;;;;;;;0.25;53.44;100763.69;5137027;27;20022;-75
2021/03/11 07:11:26;;;;;;;29.13;12.82;;;;;;;0.35;52.70;100759.22;5136889;27;20037;-74
2021/03/11 07:13:52;;;;;;;24.95;12.77;;;;;;;0.54;52.61;100768.63;5118095;27;20027;-76
2021/03/11 07:16:23;;;;;;;25.27;13.55;;;;;;;0.47;52.18;100756.44;5117037;27;20031;-77
2021/03/11 07:19:09;;;;;;;23.17;13.20;;;;;;;0.49;52.62;100765.22;5097895;28;20032;-74
2021/03/11 07:21:48;;;;;;;22.13;11.55;;;;;;;0.50;52.07;100766.94;5116133;28;20027;-74
2021/03/11 07:24:38;;;;;;;26.77;11.85;;;;;;;0.44;52.24;100764.38;5115580;28;20031;-75
2021/03/11 07:27:05;;;;;;;24.15;11.75;;;;;;;0.51;51.84;100768.69;5116074;28;20016;-75
2021/03/11 07:29:31;;;;;;;24.73;13.00;;;;;;;0.41;51.77;100764.41;5097749;28;20125;-73
2021/03/11 07:32:05;;;;;;;25.45;12.40;;;;;;;0.47;52.47;100752.97;5115999;28;20031;-72
2021/03/11 07:34:36;;;;;;;21.58;12.05;;;;;;;0.63;51.89;100759.78;5117090;28;20042;-72
2021/03/11 07:37:02;;;;;;;24.20;12.15;;;;;;;0.60;51.39;100754.59;5097791;28;20459;-73
2021/03/11 07:39:35;;;;;;;23.40;12.32;;;;;;;0.75;50.95;100764.03;5097532;28;20114;-74
2021/03/11 07:42:01;;;;;;;28.10;12.70;;;;;;;0.89;50.52;100770.00;5115690;28;20035;-76
2021/03/11 07:44:29;;;;;;;25.42;12.95;;;;;;;0.92;50.19;100759.44;5115437;28;20061;-75
2021/03/11 07:46:54;;;;;;;23.63;12.80;;;;;;;0.99;50.29;100776.00;5115861;28;20024;-76
2021/03/11 07:49:21;;;;;;;24.15;13.30;;;;;;;0.94;50.60;100778.66;5115985;28;20243;-76
2021/03/11 07:51:47;;;;;;;22.58;12.45;;;;;;;0.92;49.91;100772.56;5118547;27;20473;-77
2021/03/11 07:54:13;;;;;;;24.80;12.25;;;;;;;0.92;50.01;100756.81;5117221;27;20031;-76
2021/03/11 07:56:39;;;;;;;28.20;12.80;;;;;;;0.96;50.14;100769.00;5117890;27;20496;-78
2021/03/11 07:59:05;;;;;;;25.55;13.63;;;;;;;0.99;50.04;100768.13;5138203;27;20049;-73
2021/03/11 08:01:45;;;;;;;26.95;13.32;;;;;;;0.96;50.15;100774.25;5118624;27;20051;-73
2021/03/11 08:04:12;;;;;;;26.65;13.60;;;;;;;1.15;50.34;100774.88;5135479;27;20060;-74
2021/03/11 08:06:38;;;;;;;24.42;12.32;;;;;;;1.29;49.13;100767.69;5135978;27;20026;-78
2021/03/11 08:09:03;;;;;;;23.58;12.73;;;;;;;1.22;49.54;100759.91;5100922;27;20538;-78
2021/03/11 08:11:32;;;;;;;28.77;14.10;;;;;;;1.32;50.05;100758.91;5116687;27;20027;-78
2021/03/11 08:14:23;;;;;;;26.02;13.25;;;;;;;1.44;49.77;100745.56;5135402;27;20031;-77
2021/03/11 08:16:51;;;;;;;26.65;12.43;;;;;;;1.45;49.07;100742.06;5117410;27;20030;-80
2021/03/11 08:19:34;;;;;;;24.30;12.50;;;;;;;1.40;49.76;100738.63;5135926;27;20023;-76
2021/03/11 08:22:00;;;;;;;24.88;12.52;;;;;;;1.36;50.17;100731.69;5130653;27;20090;-76
2021/03/11 08:25:01;;;;;;;22.50;12.65;;;;;;;1.43;50.36;100728.06;5096674;28;20177;-74
2021/03/11 08:27:32;;;;;;;23.33;12.02;;;;;;;1.66;49.20;100733.84;4980085;28;20033;-78
2021/03/11 08:29:58;;;;;;;26.38;12.25;;;;;;;1.69;49.30;100731.16;5097647;28;20078;-76
2021/03/11 08:32:50;;;;;;;23.30;12.35;;;;;;;1.67;49.51;100735.56;5122625;27;20059;-75
2021/03/11 08:35:27;;;;;;;28.30;11.85;;;;;;;1.74;49.31;100728.47;5135459;27;20053;-79
2021/03/11 08:37:54;;;;;;;25.13;12.18;;;;;;;1.73;49.33;100724.94;5135356;27;20181;-78
2021/03/11 08:40:40;;;;;;;22.85;12.23;;;;;;;1.51;49.46;100693.75;5134156;27;20023;-78
2021/03/11 08:43:06;;;;;;;24.25;12.32;;;;;;;1.75;49.24;100726.69;5135274;27;20038;-82
2021/03/11 08:45:37;;;;;;;23.95;12.60;;;;;;;1.90;49.49;100729.06;5135927;27;20031;-78
2021/03/11 08:48:22;;;;;;;25.35;13.98;;;;;;;1.99;49.43;100723.63;5135695;27;20023;-77
2021/03/11 08:50:53;;;;;;;25.55;12.55;;;;;;;2.01;48.74;100704.28;5154236;27;20037;-74
2021/03/11 08:53:37;;;;;;;24.55;13.57;;;;;;;2.07;49.06;100710.34;5132193;27;20027;-76
2021/03/11 08:56:18;;;;;;;22.88;12.15;;;;;;;2.23;48.61;100711.81;5114867;28;20487;-77
2021/03/11 08:58:57;;;;;;;23.13;12.25;;;;;;;2.40;48.14;100712.34;5114618;28;20167;-78
2021/03/11 09:01:31;;;;;;;23.58;12.15;;;;;;;2.43;48.03;100707.03;5095972;28;20456;-74
2021/03/11 09:03:58;;;;;;;23.45;12.63;;;;;;;2.37;48.21;100690.47;5095499;28;20557;-71
2021/03/11 09:06:58;;;;;;;21.38;11.43;;;;;;;2.54;48.19;100694.50;5095215;28;20019;-73
2021/03/11 09:09:37;;;;;;;22.48;12.88;;;;;;;2.56;47.46;100684.81;5114053;28;20019;-73
2021/03/11 09:12:06;;;;;;;23.15;11.85;;;;;;;2.67;47.30;100687.22;5113878;28;20027;-73
2021/03/11 09:14:32;;;;;;;25.08;12.80;;;;;;;2.74;47.75;100686.19;5113652;28;20123;-72
2021/03/11 09:17:12;;;;;;;21.83;12.15;;;;;;;2.84;47.17;100679.81;5095412;28;20028;-73
2021/03/11 09:19:45;;;;;;;22.98;12.90;;;;;;;2.86;47.35;100679.78;5113811;28;20038;-74
2021/03/11 09:22:28;;;;;;;23.40;12.88;;;;;;;2.95;47.10;100681.34;5119694;27;20098;-73
2021/03/11 09:25:11;;;;;;;22.92;12.68;;;;;;;2.98;47.06;100676.88;5134267;27;20031;-74
2021/03/11 09:27:39;;;;;;;22.42;11.95;;;;;;;3.11;46.97;100678.34;5134094;27;20068;-75
2021/03/11 09:30:11;;;;;;;23.95;12.32;;;;;;;3.16;46.25;100665.06;5116069;27;20052;-72
2021/03/11 09:32:38;;;;;;;22.45;12.43;;;;;;;3.18;46.19;100673.78;5133723;27;20023;-75
2021/03/11 09:35:10;;;;;;;24.33;12.82;;;;;;;3.22;46.25;100670.19;5115773;27;20034;-73
2021/03/11 09:37:42;;;;;;;23.95;13.55;;;;;;;3.28;46.60;100674.44;5133856;27;20038;-74
2021/03/11 09:40:09;;;;;;;25.80;13.85;;;;;;;3.30;46.79;100665.59;5134040;27;20023;-73
2021/03/11 09:42:35;;;;;;;22.33;13.27;;;;;;;3.55;45.64;100662.34;5098158;27;20046;-73
2021/03/11 09:45:00;;;;;;;22.77;12.48;;;;;;;3.62;44.91;100656.03;5133713;27;20023;-73
2021/03/11 09:47:29;;;;;;;24.45;13.45;;;;;;;3.65;45.50;100658.59;5115459;27;20023;-74
2021/03/11 09:50:08;;;;;;;27.05;13.00;;;;;;;3.73;44.52;100641.66;5115235;27;20485;-72
2021/03/11 09:52:53;;;;;;;24.38;12.80;;;;;;;3.90;43.77;100645.63;5123669;27;20028;-73
2021/03/11 09:55:18;;;;;;;23.23;13.13;;;;;;;4.00;43.62;100645.34;5113245;28;20034;-75
2021/03/11 09:57:44;;;;;;;26.02;13.45;;;;;;;4.18;43.58;100651.91;5095095;28;20159;-75
2021/03/11 10:00:10;;;;;;;26.38;13.20;;;;;;;4.28;43.53;100652.50;5113139;28;20024;-75
2021/03/11 10:02:52;;;;;;;24.50;12.10;;;;;;;4.43;42.65;100643.28;5112498;28;20059;-75
2021/03/11 10:05:19;;;;;;;22.52;12.65;;;;;;;4.62;41.77;100635.69;5094704;28;20032;-75
2021/03/11 10:07:57;;;;;;;24.33;13.07;;;;;;;4.76;41.93;100634.38;5113164;28;20463;-73
2021/03/11 10:10:24;;;;;;;25.13;12.52;;;;;;;4.85;42.03;100630.59;5094924;28;20031;-73
2021/03/11 10:12:50;;;;;;;20.75;11.77;;;;;;;4.99;41.53;100623.06;5094328;28;20024;-74
2021/03/11 10:15:16;;;;;;;22.00;12.40;;;;;;;5.06;41.34;100603.47;5094747;28;20034;-74
2021/03/11 10:17:42;;;;;;;25.50;12.18;;;;;;;5.07;40.82;100615.78;5094713;28;20031;-75
2021/03/11 10:20:28;;;;;;;24.75;12.70;;;;;;;5.41;40.18;100612.03;5121361;28;20027;-74
2021/03/11 10:23:21;;;;;;;32.10;14.68;;;;;;;5.59;40.33;100598.16;5132966;28;20020;-81
2021/03/11 10:26:17;;;;;;;25.40;13.48;;;;;;;5.68;39.66;100584.63;5134070;27;20035;-74
2021/03/11 10:28:45;;;;;;;28.13;12.57;;;;;;;5.81;38.16;100576.28;5133682;28;20442;-74
2021/03/11 10:31:12;;;;;;;21.98;12.00;;;;;;;5.86;38.58;100582.25;5133411;28;20385;-74
2021/03/11 10:33:38;;;;;;;21.17;12.45;;;;;;;6.07;37.99;100585.94;5098518;27;20033;-80
2021/03/11 10:36:12;;;;;;;20.85;11.52;;;;;;;6.17;37.62;100572.31;5137764;27;20068;-74
2021/03/11 10:38:39;;;;;;;21.30;12.55;;;;;;;6.14;37.99;100569.78;5118979;27;20030;-80
2021/03/11 10:41:16;;;;;;;20.90;12.15;;;;;;;6.14;38.30;100575.06;5119309;27;20023;-80
2021/03/11 10:43:42;;;;;;;27.90;12.95;;;;;;;6.22;38.22;100572.16;5137315;27;20026;-77
2021/03/11 10:46:18;;;;;;;24.40;12.63;;;;;;;6.18;37.92;100560.81;5137477;27;20542;-78
2021/03/11 10:48:51;;;;;;;25.23;13.27;;;;;;;6.23;37.92;100558.84;5119383;27;20058;-78
2021/03/11 10:51:22;;;;;;;24.83;13.23;;;;;;;6.26;37.84;100556.06;5119469;27;20118;-77
2021/03/11 10:53:48;;;;;;;22.85;12.43;;;;;;;6.48;38.09;100557.94;5137088;27;20039;-73
2021/03/11 10:56:14;;;;;;;26.55;13.88;;;;;;;6.30;38.14;100549.75;5118990;27;20481;-75
2021/03/11 10:58:40;;;;;;;25.08;12.85;;;;;;;6.39;37.08;100552.97;5137228;27;20027;-77
2021/03/11 11:01:10;;;;;;;25.40;13.27;;;;;;;6.48;37.35;100553.50;5137215;27;20023;-75
2021/03/11 11:03:37;;;;;;;23.85;12.50;;;;;;;6.55;37.56;100539.06;5118566;27;20050;-77
2021/03/11 11:06:04;;;;;;;25.73;13.52;;;;;;;6.56;36.35;100518.72;5137143;27;20027;-74
2021/03/11 11:08:29;;;;;;;26.08;12.68;;;;;;;6.46;36.40;100512.06;5136995;27;20019;-74
2021/03/11 11:10:55;;;;;;;22.90;13.10;;;;;;;6.55;36.39;100503.75;5118716;27;20495;-73
2021/03/11 11:13:21;;;;;;;23.42;12.60;;;;;;;6.55;36.53;100498.44;5136718;27;20038;-79
2021/03/11 11:15:47;;;;;;;22.55;12.45;;;;;;;6.69;35.51;100490.81;5137313;27;20023;-77
2021/03/11 11:18:12;;;;;;;26.40;13.45;;;;;;;6.69;35.73;100474.03;5137032;27;20020;-81
2021/03/11 11:20:38;;;;;;;26.15;13.25;;;;;;;6.83;35.82;100487.59;5136974;27;20469;-78
2021/03/11 11:23:04;;;;;;;22.38;13.25;;;;;;;6.90;35.99;100486.41;5136475;27;20042;-78